createdAt,value
2023-04-25T00:00:01.896Z,12
2023-04-25T00:01:01.869Z,12.1
2023-04-25T00:02:01.623Z,12.1
2023-04-25T00:03:01.708Z,12.1
2023-04-25T00:04:01.911Z,12.2
2023-04-25T00:05:01.720Z,12.2
2023-04-25T00:06:02.315Z,12.1
2023-04-25T00:07:02.152Z,12.1
2023-04-25T00:08:02.270Z,12.1
2023-04-25T00:09:02.119Z,12.1
2023-04-25T00:10:02.184Z,12.2
2023-04-25T00:11:02.055Z,12.1
2023-04-25T00:12:02.130Z,12.1
2023-04-25T00:13:01.961Z,12.1
2023-04-25T00:14:01.968Z,12.1
2023-04-25T00:15:02.030Z,12.1
2023-04-25T00:16:01.881Z,12
2023-04-25T00:17:02.011Z,11.8
2023-04-25T00:18:02.191Z,11.8
2023-04-25T00:19:01.978Z,12
2023-04-25T00:20:02.096Z,12
2023-04-25T00:21:01.957Z,12
2023-04-25T00:22:01.931Z,12
2023-04-25T00:23:01.990Z,11.8
2023-04-25T00:24:01.840Z,12.1
2023-04-25T00:25:01.815Z,12
2023-04-25T00:26:01.870Z,11.8
2023-04-25T00:27:01.711Z,11.7
2023-04-25T00:28:01.797Z,11.6
2023-04-25T00:29:01.650Z,11.6
2023-04-25T00:30:01.623Z,11.5
2023-04-25T00:31:01.423Z,11.7
2023-04-25T00:32:01.336Z,11.5
2023-04-25T00:33:01.472Z,11.8
2023-04-25T00:34:01.277Z,11.5
2023-04-25T00:35:02.386Z,11.6
2023-04-25T00:36:02.251Z,11.6
2023-04-25T00:37:02.291Z,11.5
2023-04-25T00:38:02.181Z,11.5
2023-04-25T00:39:02.229Z,11.7
2023-04-25T00:40:02.081Z,11.5
2023-04-25T00:41:02.126Z,11.6
2023-04-25T00:42:02.036Z,11.7
2023-04-25T00:43:02.086Z,11.8
2023-04-25T00:44:01.910Z,11.7
2023-04-25T00:45:01.878Z,11.7
2023-04-25T00:46:01.944Z,11.8
2023-04-25T00:47:02.042Z,11.6
2023-04-25T00:48:02.007Z,11.7
2023-04-25T00:49:02.001Z,11.7
2023-04-25T00:50:01.865Z,11.8
2023-04-25T00:51:01.817Z,11.8
2023-04-25T00:52:01.849Z,11.8
2023-04-25T00:53:01.771Z,11.8
2023-04-25T00:54:01.678Z,11.5
2023-04-25T00:55:01.708Z,11.6
2023-04-25T00:56:01.549Z,11.8
2023-04-25T00:57:01.592Z,11.6
2023-04-25T00:58:01.490Z,11.4
2023-04-25T00:59:01.457Z,11.5
2023-04-25T01:00:01.818Z,11.7
2023-04-25T01:01:01.828Z,11.5
2023-04-25T01:02:01.399Z,11.7
2023-04-25T01:03:01.614Z,11.8
2023-04-25T01:04:01.969Z,11.8
2023-04-25T01:05:02.054Z,11.7
2023-04-25T01:06:02.109Z,11.6
2023-04-25T01:07:01.951Z,11.7
2023-04-25T01:08:01.889Z,11.7
2023-04-25T01:09:01.891Z,11.7
2023-04-25T01:10:01.738Z,11.8
2023-04-25T01:11:01.682Z,11.6
2023-04-25T01:12:01.733Z,11.5
2023-04-25T01:13:01.559Z,11.5
2023-04-25T01:14:01.629Z,11.6
2023-04-25T01:15:01.531Z,11.6
2023-04-25T01:16:01.519Z,11.6
2023-04-25T01:17:02.084Z,11.6
2023-04-25T01:18:02.093Z,11.6
2023-04-25T01:19:02.044Z,11.6
2023-04-25T01:20:01.921Z,11.6
2023-04-25T01:21:01.856Z,11.7
2023-04-25T01:22:01.913Z,11.6
2023-04-25T01:23:01.776Z,11.5
2023-04-25T01:24:01.821Z,11.6
2023-04-25T01:25:01.646Z,11.6
2023-04-25T01:26:01.694Z,11.6
2023-04-25T01:27:01.551Z,11.5
2023-04-25T01:28:01.608Z,11.5
2023-04-25T01:29:01.467Z,11.5
2023-04-25T01:30:01.473Z,11.6
2023-04-25T01:31:01.284Z,11.6
2023-04-25T01:32:01.373Z,11.6
2023-04-25T01:33:01.395Z,11.6
2023-04-25T01:34:02.304Z,11.6
2023-04-25T01:35:02.198Z,11.5
2023-04-25T01:36:02.603Z,11.5
2023-04-25T01:37:02.362Z,11.5
2023-04-25T01:38:02.246Z,11.4
2023-04-25T01:39:02.156Z,11.4
2023-04-25T01:40:02.223Z,11.2
2023-04-25T01:41:02.098Z,11.4
2023-04-25T01:42:02.169Z,11.4
2023-04-25T01:43:02.060Z,11.4
2023-04-25T01:44:02.069Z,11.5
2023-04-25T01:45:01.917Z,11.5
2023-04-25T01:46:01.953Z,11.4
2023-04-25T01:47:01.739Z,11.5
2023-04-25T01:48:01.828Z,11.5
2023-04-25T01:49:01.864Z,11.4
2023-04-25T01:50:01.798Z,11.4
2023-04-25T01:51:01.838Z,11.4
2023-04-25T01:52:01.686Z,11.4
2023-04-25T01:53:01.727Z,11.2
2023-04-25T01:54:01.600Z,11
2023-04-25T01:55:01.607Z,11.1
2023-04-25T01:56:01.428Z,11.1
2023-04-25T01:57:01.506Z,11.2
2023-04-25T01:58:01.382Z,11.2
2023-04-25T01:59:01.399Z,11.1
2023-04-25T02:00:01.350Z,11.2
2023-04-25T02:01:01.415Z,11.1
2023-04-25T02:02:02.357Z,11.2
2023-04-25T02:03:02.316Z,11.1
2023-04-25T02:04:01.761Z,11.1
2023-04-25T02:05:01.294Z,11
2023-04-25T02:06:02.361Z,11
2023-04-25T02:07:02.199Z,11.1
2023-04-25T02:08:02.255Z,11
2023-04-25T02:09:02.153Z,11
2023-04-25T02:10:02.186Z,11
2023-04-25T02:11:02.069Z,11
2023-04-25T02:12:02.136Z,11
2023-04-25T02:13:01.998Z,11
2023-04-25T02:14:01.984Z,11.1
2023-04-25T02:15:02.047Z,11
2023-04-25T02:16:01.939Z,11
2023-04-25T02:17:02.316Z,11
2023-04-25T02:18:01.523Z,11
2023-04-25T02:19:01.377Z,10.9
2023-04-25T02:20:01.391Z,11
2023-04-25T02:21:02.335Z,10.9
2023-04-25T02:22:02.182Z,10.9
2023-04-25T02:23:02.242Z,10.9
2023-04-25T02:24:02.118Z,10.7
2023-04-25T02:25:02.143Z,10.7
2023-04-25T02:26:02.063Z,10.6
2023-04-25T02:27:02.110Z,10.7
2023-04-25T02:28:01.973Z,10.8
2023-04-25T02:29:02.019Z,10.8
2023-04-25T02:30:01.977Z,10.8
2023-04-25T02:31:01.828Z,10.8
2023-04-25T02:32:01.729Z,10.7
2023-04-25T02:33:01.781Z,10.7
2023-04-25T02:34:01.613Z,10.7
2023-04-25T02:35:01.646Z,10.6
2023-04-25T02:36:01.497Z,10.7
2023-04-25T02:37:01.521Z,10.7
2023-04-25T02:38:01.433Z,10.8
2023-04-25T02:39:01.490Z,10.7
2023-04-25T02:40:01.293Z,10.8
2023-04-25T02:41:01.413Z,10.7
2023-04-25T02:42:02.375Z,10.7
2023-04-25T02:43:02.215Z,10.7
2023-04-25T02:44:02.261Z,10.8
2023-04-25T02:45:02.113Z,10.7
2023-04-25T02:46:02.156Z,10.7
2023-04-25T02:47:02.055Z,10.5
2023-04-25T02:48:01.988Z,10.6
2023-04-25T02:49:02.138Z,10.5
2023-04-25T02:50:01.992Z,10.6
2023-04-25T02:51:01.932Z,10.6
2023-04-25T02:52:01.952Z,10.6
2023-04-25T02:53:01.805Z,10.5
2023-04-25T02:54:01.731Z,10.5
2023-04-25T02:55:01.803Z,10.5
2023-04-25T02:56:01.646Z,10.5
2023-04-25T02:57:01.650Z,10.5
2023-04-25T02:58:01.562Z,10.4
2023-04-25T02:59:01.607Z,10.5
2023-04-25T03:00:02.591Z,10.5
2023-04-25T03:01:01.455Z,10.3
2023-04-25T03:02:01.365Z,10.4
2023-04-25T03:03:01.520Z,10.4
2023-04-25T03:04:01.562Z,10.4
2023-04-25T03:05:01.581Z,10.5
2023-04-25T03:06:01.459Z,10.5
2023-04-25T03:07:01.469Z,10.4
2023-04-25T03:08:01.326Z,10.3
2023-04-25T03:09:01.345Z,10.4
2023-04-25T03:10:02.331Z,10.4
2023-04-25T03:11:02.203Z,10.3
2023-04-25T03:12:02.267Z,10.3
2023-04-25T03:13:02.095Z,10.3
2023-04-25T03:14:02.118Z,10.3
2023-04-25T03:15:02.031Z,10.3
2023-04-25T03:16:02.263Z,10.3
2023-04-25T03:17:01.952Z,10.3
2023-04-25T03:18:02.091Z,10.2
2023-04-25T03:19:02.152Z,10.1
2023-04-25T03:20:02.011Z,10.2
2023-04-25T03:21:02.039Z,10.2
2023-04-25T03:22:01.886Z,10.2
2023-04-25T03:23:01.844Z,10.2
2023-04-25T03:24:01.882Z,10.2
2023-04-25T03:25:01.747Z,10.2
2023-04-25T03:26:01.814Z,10.2
2023-04-25T03:27:01.628Z,10.2
2023-04-25T03:28:01.690Z,10.1
2023-04-25T03:29:01.537Z,10.1
2023-04-25T03:30:01.607Z,10.1
2023-04-25T03:31:01.453Z,10.1
2023-04-25T03:32:01.322Z,10.2
2023-04-25T03:33:02.402Z,10.2
2023-04-25T03:34:02.239Z,10.2
2023-04-25T03:35:02.299Z,10.2
2023-04-25T03:36:02.159Z,10.1
2023-04-25T03:37:02.215Z,10.1
2023-04-25T03:38:02.080Z,10.1
2023-04-25T03:39:02.132Z,10.1
2023-04-25T03:40:01.990Z,10.1
2023-04-25T03:41:01.964Z,10.1
2023-04-25T03:42:01.995Z,10.1
2023-04-25T03:43:01.911Z,10.1
2023-04-25T03:44:01.811Z,10.1
2023-04-25T03:45:01.790Z,10.1
2023-04-25T03:46:01.713Z,10.2
2023-04-25T03:47:01.498Z,10.2
2023-04-25T03:48:01.540Z,10
2023-04-25T03:49:01.561Z,9.9
2023-04-25T03:50:01.607Z,10.1
2023-04-25T03:51:01.435Z,10.3
2023-04-25T03:52:01.551Z,10.3
2023-04-25T03:53:01.405Z,10.3
2023-04-25T03:54:01.428Z,10.2
2023-04-25T03:55:01.234Z,10.2
2023-04-25T03:56:02.286Z,10.2
2023-04-25T03:57:02.160Z,10.3
2023-04-25T03:58:02.199Z,10.1
2023-04-25T03:59:02.088Z,10.2
2023-04-25T04:00:03.320Z,10.2
2023-04-25T04:01:02.194Z,10.2
2023-04-25T04:02:01.994Z,10.3
2023-04-25T04:03:02.099Z,10.2
2023-04-25T04:04:01.517Z,10.2
2023-04-25T04:05:02.093Z,10.3
2023-04-25T04:06:01.617Z,10.2
2023-04-25T04:07:01.477Z,10.2
2023-04-25T04:08:01.478Z,10.3
2023-04-25T04:09:01.382Z,10.2
2023-04-25T04:10:01.432Z,10.1
2023-04-25T04:11:01.334Z,10.2
2023-04-25T04:12:02.359Z,10.2
2023-04-25T04:13:01.905Z,10.1
2023-04-25T04:14:01.944Z,10.2
2023-04-25T04:15:01.788Z,10
2023-04-25T04:16:01.851Z,10.2
2023-04-25T04:17:01.835Z,10.2
2023-04-25T04:18:01.799Z,10.2
2023-04-25T04:19:01.823Z,10.2
2023-04-25T04:20:01.698Z,9.9
2023-04-25T04:21:01.715Z,10.1
2023-04-25T04:22:01.631Z,10.1
2023-04-25T04:23:01.618Z,10.1
2023-04-25T04:24:01.441Z,10.1
2023-04-25T04:25:01.407Z,10.2
2023-04-25T04:26:01.307Z,10.1
2023-04-25T04:27:02.371Z,10.1
2023-04-25T04:28:02.238Z,10.2
2023-04-25T04:29:02.273Z,10.2
2023-04-25T04:30:02.184Z,10.2
2023-04-25T04:31:01.394Z,10.2
2023-04-25T04:32:01.920Z,10.1
2023-04-25T04:33:02.004Z,10.1
2023-04-25T04:34:01.957Z,10.1
2023-04-25T04:35:01.816Z,10
2023-04-25T04:36:01.766Z,10
2023-04-25T04:37:01.752Z,9.9
2023-04-25T04:38:01.689Z,10
2023-04-25T04:39:01.727Z,10.1
2023-04-25T04:40:01.569Z,10.1
2023-04-25T04:41:01.612Z,10
2023-04-25T04:42:01.429Z,10
2023-04-25T04:43:01.463Z,10
2023-04-25T04:44:01.340Z,10
2023-04-25T04:45:01.302Z,10.1
2023-04-25T04:46:02.354Z,10
2023-04-25T04:47:02.306Z,9.8
2023-04-25T04:48:02.251Z,10
2023-04-25T04:49:02.149Z,10
2023-04-25T04:50:02.226Z,10
2023-04-25T04:51:02.068Z,10.1
2023-04-25T04:52:02.118Z,9.9
2023-04-25T04:53:01.953Z,10.1
2023-04-25T04:54:01.914Z,10.2
2023-04-25T04:55:01.964Z,10.2
2023-04-25T04:56:01.836Z,10.3
2023-04-25T04:57:01.768Z,10.2
2023-04-25T04:58:01.852Z,10.1
2023-04-25T04:59:01.676Z,10.1
2023-04-25T05:00:02.146Z,10.1
2023-04-25T05:01:01.959Z,10.2
2023-04-25T05:02:01.465Z,10.2
2023-04-25T05:03:01.672Z,10.3
2023-04-25T05:04:02.289Z,10.1
2023-04-25T05:05:01.479Z,9.9
2023-04-25T05:06:01.546Z,10.2
2023-04-25T05:07:01.421Z,10.2
2023-04-25T05:08:01.416Z,10.1
2023-04-25T05:09:02.361Z,10.1
2023-04-25T05:10:02.262Z,9.9
2023-04-25T05:11:02.271Z,10.1
2023-04-25T05:12:02.257Z,10.1
2023-04-25T05:13:02.174Z,10.2
2023-04-25T05:14:02.087Z,10.2
2023-04-25T05:15:02.165Z,9.8
2023-04-25T05:16:02.046Z,10
2023-04-25T05:17:01.994Z,10.1
2023-04-25T05:18:02.348Z,10.1
2023-04-25T05:19:02.236Z,10.2
2023-04-25T05:20:02.321Z,10.2
2023-04-25T05:21:02.180Z,10.3
2023-04-25T05:22:02.254Z,10.3
2023-04-25T05:23:02.112Z,10.4
2023-04-25T05:24:02.153Z,10.3
2023-04-25T05:25:02.037Z,10.3
2023-04-25T05:26:02.079Z,10.1
2023-04-25T05:27:01.939Z,10.2
2023-04-25T05:28:01.896Z,10.3
2023-04-25T05:29:01.895Z,10.2
2023-04-25T05:30:01.769Z,10.2
2023-04-25T05:31:01.702Z,10.2
2023-04-25T05:32:01.675Z,10.2
2023-04-25T05:33:01.726Z,10.2
2023-04-25T05:34:01.607Z,10
2023-04-25T05:35:01.557Z,10.2
2023-04-25T05:36:01.461Z,10.1
2023-04-25T05:37:01.489Z,10.1
2023-04-25T05:38:01.334Z,10.1
2023-04-25T05:39:01.377Z,10
2023-04-25T05:40:02.324Z,10.2
2023-04-25T05:41:02.387Z,10.2
2023-04-25T05:42:02.224Z,10
2023-04-25T05:43:02.102Z,10.1
2023-04-25T05:44:02.107Z,10
2023-04-25T05:45:01.997Z,10.2
2023-04-25T05:46:01.960Z,10.2
2023-04-25T05:47:01.845Z,10.2
2023-04-25T05:48:01.924Z,10.1
2023-04-25T05:49:01.407Z,10.1
2023-04-25T05:50:01.466Z,10.2
2023-04-25T05:51:01.302Z,10
2023-04-25T05:52:02.345Z,10.2
2023-04-25T05:53:02.254Z,10.2
2023-04-25T05:54:02.333Z,10.4
2023-04-25T05:55:02.197Z,10.2
2023-04-25T05:56:02.242Z,10.3
2023-04-25T05:57:02.096Z,10.4
2023-04-25T05:58:02.107Z,10.4
2023-04-25T05:59:02.049Z,10.3
2023-04-25T06:00:01.983Z,10.3
2023-04-25T06:01:02.044Z,10.3
2023-04-25T06:02:01.710Z,10.3
2023-04-25T06:03:01.833Z,10.2
2023-04-25T06:04:02.497Z,10.4
2023-04-25T06:05:01.733Z,10.2
2023-04-25T06:06:02.495Z,10.2
2023-04-25T06:07:01.496Z,10
2023-04-25T06:08:01.510Z,10.1
2023-04-25T06:09:01.455Z,10
2023-04-25T06:10:01.439Z,10.2
2023-04-25T06:11:01.277Z,10.3
2023-04-25T06:12:02.377Z,10.3
2023-04-25T06:13:02.201Z,10.2
2023-04-25T06:14:02.305Z,10.2
2023-04-25T06:15:02.590Z,10
2023-04-25T06:16:01.383Z,10.1
2023-04-25T06:17:02.049Z,10.3
2023-04-25T06:18:02.107Z,10.2
2023-04-25T06:19:01.993Z,10.2
2023-04-25T06:20:01.965Z,10.1
2023-04-25T06:21:01.976Z,10.2
2023-04-25T06:22:01.811Z,10.3
2023-04-25T06:23:01.747Z,10.3
2023-04-25T06:24:01.795Z,10.1
2023-04-25T06:25:01.649Z,10
2023-04-25T06:26:01.709Z,10.2
2023-04-25T06:27:01.594Z,10.1
2023-04-25T06:28:01.612Z,10.2
2023-04-25T06:29:01.533Z,10.2
2023-04-25T06:30:01.532Z,10.1
2023-04-25T06:31:01.449Z,10.2
2023-04-25T06:32:01.440Z,10
2023-04-25T06:33:01.549Z,10.1
2023-04-25T06:34:01.449Z,10.1
2023-04-25T06:35:01.408Z,10.1
2023-04-25T06:36:01.292Z,10.2
2023-04-25T06:37:02.361Z,10.2
2023-04-25T06:38:02.199Z,10.4
2023-04-25T06:39:02.197Z,10.2
2023-04-25T06:40:02.122Z,10.3
2023-04-25T06:41:02.167Z,10.3
2023-04-25T06:42:02.283Z,10.4
2023-04-25T06:43:01.477Z,10.4
2023-04-25T06:44:01.310Z,10.4
2023-04-25T06:45:02.415Z,10.4
2023-04-25T06:46:02.287Z,10.4
2023-04-25T06:47:02.133Z,10.4
2023-04-25T06:48:02.206Z,10.6
2023-04-25T06:49:02.050Z,10.6
2023-04-25T06:50:02.086Z,10.4
2023-04-25T06:51:01.927Z,10.5
2023-04-25T06:52:01.885Z,10.5
2023-04-25T06:53:01.933Z,10.4
2023-04-25T06:54:01.772Z,10.5
2023-04-25T06:55:01.833Z,10.5
2023-04-25T06:56:01.879Z,10.4
2023-04-25T06:57:01.720Z,10.4
2023-04-25T06:58:01.773Z,10.4
2023-04-25T06:59:01.585Z,10.5
2023-04-25T07:00:02.792Z,10.4
2023-04-25T07:01:01.710Z,10.4
2023-04-25T07:02:02.265Z,10.5
2023-04-25T07:03:02.424Z,10.5
2023-04-25T07:04:01.641Z,10.4
2023-04-25T07:05:02.150Z,10.4
2023-04-25T07:06:02.012Z,10.5
2023-04-25T07:07:02.102Z,10.5
2023-04-25T07:08:01.901Z,10.4
2023-04-25T07:09:01.978Z,10.4
2023-04-25T07:10:01.992Z,10.4
2023-04-25T07:11:01.848Z,10.5
2023-04-25T07:12:01.791Z,10.3
2023-04-25T07:13:01.851Z,10.4
2023-04-25T07:14:01.681Z,10.5
2023-04-25T07:15:01.696Z,10.4
2023-04-25T07:16:01.597Z,10.6
2023-04-25T07:17:01.564Z,10.6
2023-04-25T07:18:01.624Z,10.7
2023-04-25T07:19:01.452Z,10.6
2023-04-25T07:20:02.102Z,10.7
2023-04-25T07:21:02.225Z,10.6
2023-04-25T07:22:02.015Z,10.5
2023-04-25T07:23:02.050Z,10.7
2023-04-25T07:24:01.912Z,10.8
2023-04-25T07:25:01.848Z,10.8
2023-04-25T07:26:01.913Z,10.9
2023-04-25T07:27:01.785Z,10.9
2023-04-25T07:28:01.722Z,10.8
2023-04-25T07:29:01.782Z,10.8
2023-04-25T07:30:01.627Z,10.6
2023-04-25T07:31:01.606Z,10.7
2023-04-25T07:32:01.432Z,10.6
2023-04-25T07:33:01.465Z,11
2023-04-25T07:34:02.409Z,10.8
2023-04-25T07:35:02.227Z,10.7
2023-04-25T07:36:02.302Z,10.7
2023-04-25T07:37:02.161Z,10.8
2023-04-25T07:38:02.246Z,10.6
2023-04-25T07:39:02.115Z,10.8
2023-04-25T07:40:02.166Z,10.9
2023-04-25T07:41:02.029Z,10.9
2023-04-25T07:42:02.078Z,10.8
2023-04-25T07:43:01.921Z,11
2023-04-25T07:44:01.967Z,10.9
2023-04-25T07:45:01.786Z,10.9
2023-04-25T07:46:01.677Z,10.9
2023-04-25T07:47:03.889Z,11
2023-04-25T07:48:02.289Z,10.9
2023-04-25T07:49:02.381Z,11
2023-04-25T07:50:02.259Z,11
2023-04-25T07:51:02.186Z,10.7
2023-04-25T07:52:02.243Z,10.8
2023-04-25T07:53:02.107Z,10.9
2023-04-25T07:54:02.152Z,10.9
2023-04-25T07:55:02.035Z,10.8
2023-04-25T07:56:02.068Z,10.9
2023-04-25T07:57:01.922Z,11
2023-04-25T07:58:01.861Z,10.7
2023-04-25T07:59:01.869Z,11
2023-04-25T08:00:02.617Z,11.1
2023-04-25T08:01:01.473Z,11
2023-04-25T08:02:01.689Z,11.1
2023-04-25T08:03:01.927Z,11.1
2023-04-25T08:04:02.249Z,11.1
2023-04-25T08:05:01.999Z,11
2023-04-25T08:06:02.798Z,11.1
2023-04-25T08:07:02.246Z,11.3
2023-04-25T08:08:02.125Z,11.3
2023-04-25T08:09:02.202Z,11.3
2023-04-25T08:10:02.081Z,11.2
2023-04-25T08:11:02.144Z,11.5
2023-04-25T08:12:01.999Z,11.5
2023-04-25T08:13:01.989Z,11.5
2023-04-25T08:14:01.981Z,11.6
2023-04-25T08:15:01.903Z,11.7
2023-04-25T08:16:01.838Z,11.7
2023-04-25T08:17:01.830Z,11.6
2023-04-25T08:18:01.903Z,11.9
2023-04-25T08:19:01.744Z,11.9
2023-04-25T08:20:01.754Z,12
2023-04-25T08:21:01.575Z,12.2
2023-04-25T08:22:01.640Z,12.2
2023-04-25T08:23:01.493Z,12.3
2023-04-25T08:24:01.500Z,12
2023-04-25T08:25:02.034Z,12.1
2023-04-25T08:26:01.992Z,12.1
2023-04-25T08:27:02.023Z,12.2
2023-04-25T08:28:01.865Z,11.9
2023-04-25T08:29:01.795Z,11.8
2023-04-25T08:30:01.835Z,11.9
2023-04-25T08:31:01.703Z,11.8
2023-04-25T08:32:01.706Z,11.9
2023-04-25T08:33:01.742Z,11.9
2023-04-25T08:34:01.589Z,11.8
2023-04-25T08:35:01.612Z,12
2023-04-25T08:36:01.482Z,11.9
2023-04-25T08:37:01.497Z,12.2
2023-04-25T08:38:01.363Z,12.4
2023-04-25T08:39:01.425Z,12.5
2023-04-25T08:40:02.362Z,12.4
2023-04-25T08:41:02.254Z,12.3
2023-04-25T08:42:02.271Z,12.3
2023-04-25T08:43:02.140Z,12.3
2023-04-25T08:44:02.475Z,12.1
2023-04-25T08:45:04.321Z,12.3
2023-04-25T08:46:01.760Z,12.4
2023-04-25T08:47:02.118Z,12.4
2023-04-25T08:48:02.168Z,12.2
2023-04-25T08:49:01.997Z,12.3
2023-04-25T08:50:02.048Z,12.4
2023-04-25T08:51:01.988Z,12.4
2023-04-25T08:52:01.843Z,12.5
2023-04-25T08:53:01.780Z,12.4
2023-04-25T08:54:08.978Z,12.3
2023-04-25T08:55:01.879Z,12.6
2023-04-25T08:56:01.837Z,12.5
2023-04-25T08:57:01.909Z,12.6
2023-04-25T08:58:01.754Z,12.8
2023-04-25T08:59:01.810Z,12.8
2023-04-25T09:00:03.177Z,12.4
2023-04-25T09:01:02.105Z,12.6
2023-04-25T09:02:01.705Z,12.5
2023-04-25T09:03:01.876Z,12.6
2023-04-25T09:04:02.383Z,12.4
2023-04-25T09:05:01.465Z,12.7
2023-04-25T09:06:01.503Z,12.8
2023-04-25T09:07:01.339Z,12.9
2023-04-25T09:08:01.382Z,12.7
2023-04-25T09:09:02.338Z,12.6
2023-04-25T09:10:02.218Z,12.7
2023-04-25T09:11:02.288Z,12.5
2023-04-25T09:12:02.184Z,12.4
2023-04-25T09:13:02.233Z,12.3
2023-04-25T09:14:02.089Z,12.4
2023-04-25T09:15:02.136Z,12.5
2023-04-25T09:16:02.010Z,12.6
2023-04-25T09:17:02.177Z,12.6
2023-04-25T09:18:01.647Z,12.7
2023-04-25T09:19:01.695Z,12.6
2023-04-25T09:20:01.722Z,12.2
2023-04-25T09:21:03.059Z,12.6
2023-04-25T09:22:01.419Z,12.6
2023-04-25T09:23:01.424Z,12.8
2023-04-25T09:24:01.342Z,12.6
2023-04-25T09:25:01.348Z,12.7
2023-04-25T09:26:02.350Z,12.7
2023-04-25T09:27:02.237Z,12.9
2023-04-25T09:28:02.325Z,12.8
2023-04-25T09:29:02.161Z,12.9
2023-04-25T09:30:02.217Z,13
2023-04-25T09:31:02.094Z,13.2
2023-04-25T09:32:01.853Z,12.9
2023-04-25T09:33:01.968Z,12.9
2023-04-25T09:34:02.301Z,12.8
2023-04-25T09:35:02.210Z,12.6
2023-04-25T09:36:02.300Z,12.9
2023-04-25T09:37:02.175Z,13
2023-04-25T09:38:02.253Z,12.8
2023-04-25T09:39:02.102Z,12.8
2023-04-25T09:40:02.152Z,12.8
2023-04-25T09:41:01.336Z,12.8
2023-04-25T09:42:01.411Z,13
2023-04-25T09:43:01.311Z,12.9
2023-04-25T09:44:01.788Z,12.8
2023-04-25T09:45:01.381Z,12.8
2023-04-25T09:46:01.547Z,12.8
2023-04-25T09:47:01.401Z,12.8
2023-04-25T09:48:01.493Z,12.7
2023-04-25T09:49:01.305Z,12.8
2023-04-25T09:50:02.371Z,12.6
2023-04-25T09:51:02.232Z,12.5
2023-04-25T09:52:02.262Z,12.6
2023-04-25T09:53:02.174Z,12.7
2023-04-25T09:54:02.231Z,12.8
2023-04-25T09:55:02.085Z,12.7
2023-04-25T09:56:02.133Z,12.9
2023-04-25T09:57:02.034Z,12.9
2023-04-25T09:58:01.976Z,13.2
2023-04-25T09:59:01.984Z,13.1
2023-04-25T10:00:01.848Z,12.9
2023-04-25T10:01:01.905Z,13.3
2023-04-25T10:02:01.847Z,13.2
2023-04-25T10:03:01.985Z,13.2
2023-04-25T10:04:02.633Z,13.2
2023-04-25T10:05:02.146Z,13.3
2023-04-25T10:06:02.225Z,13.3
2023-04-25T10:07:02.208Z,13.4
2023-04-25T10:08:02.097Z,13.5
2023-04-25T10:09:01.997Z,13.6
2023-04-25T10:10:01.923Z,13.8
2023-04-25T10:11:01.965Z,13.5
2023-04-25T10:12:01.817Z,13.6
2023-04-25T10:13:01.876Z,13.3
2023-04-25T10:14:01.754Z,13.1
2023-04-25T10:15:01.724Z,13.6
2023-04-25T10:16:01.815Z,13.7
2023-04-25T10:17:01.510Z,13.2
2023-04-25T10:18:01.542Z,12.9
2023-04-25T10:19:01.407Z,13.5
2023-04-25T10:20:01.385Z,13.7
2023-04-25T10:21:02.311Z,13.7
2023-04-25T10:22:02.264Z,14.2
2023-04-25T10:23:02.365Z,14
2023-04-25T10:24:02.283Z,13.7
2023-04-25T10:25:02.291Z,13.5
2023-04-25T10:26:02.202Z,13.7
2023-04-25T10:27:02.303Z,13.1
2023-04-25T10:28:02.146Z,13.3
2023-04-25T10:29:02.204Z,13.1
2023-04-25T10:30:02.203Z,13.6
2023-04-25T10:31:02.180Z,13.6
2023-04-25T10:32:01.931Z,13.6
2023-04-25T10:33:01.820Z,13.5
2023-04-25T10:34:01.857Z,13.6
2023-04-25T10:35:01.712Z,13.5
2023-04-25T10:36:01.761Z,13.3
2023-04-25T10:37:01.620Z,13.4
2023-04-25T10:38:01.645Z,13.4
2023-04-25T10:39:01.464Z,13.1
2023-04-25T10:40:01.463Z,12.9
2023-04-25T10:41:01.313Z,12.8
2023-04-25T10:42:02.383Z,12.9
2023-04-25T10:43:01.281Z,13.2
2023-04-25T10:44:02.347Z,13.2
2023-04-25T10:45:01.370Z,12.9
2023-04-25T10:46:01.439Z,13.2
2023-04-25T10:47:02.367Z,13.2
2023-04-25T10:48:01.505Z,13.2
2023-04-25T10:49:01.561Z,13.1
2023-04-25T10:50:01.378Z,13.2
2023-04-25T10:51:01.409Z,13.2
2023-04-25T10:52:02.353Z,12.8
2023-04-25T10:53:02.301Z,13.2
2023-04-25T10:54:02.350Z,13.3
2023-04-25T10:55:02.217Z,13.3
2023-04-25T10:56:02.286Z,13.2
2023-04-25T10:57:02.158Z,13.2
2023-04-25T10:58:02.260Z,13
2023-04-25T10:59:02.230Z,13.3
2023-04-25T11:00:02.145Z,13.1
2023-04-25T11:01:02.012Z,13.3
2023-04-25T11:02:02.105Z,13.4
2023-04-25T11:03:02.412Z,13.5
2023-04-25T11:04:01.587Z,13.4
2023-04-25T11:05:01.897Z,12.9
2023-04-25T11:06:01.750Z,13.2
2023-04-25T11:07:06.319Z,13.2
2023-04-25T11:08:07.518Z,13.3
2023-04-25T11:09:02.094Z,13.1
2023-04-25T11:10:02.171Z,13.2
2023-04-25T11:11:02.028Z,12.7
2023-04-25T11:12:02.058Z,12.8
2023-04-25T11:13:01.921Z,13
2023-04-25T11:14:01.864Z,13.1
2023-04-25T11:15:01.902Z,13.2
2023-04-25T11:16:07.061Z,13.3
2023-04-25T11:17:01.692Z,13.2
2023-04-25T11:18:02.085Z,13.1
2023-04-25T11:19:02.196Z,13.1
2023-04-25T11:20:02.094Z,13.1
2023-04-25T11:21:02.157Z,13.2
2023-04-25T11:22:02.043Z,13.3
2023-04-25T11:24:01.834Z,13.2
2023-04-25T11:25:01.791Z,13.2
2023-04-25T11:26:01.782Z,13
2023-04-25T11:27:01.700Z,13.2
2023-04-25T11:28:01.714Z,13.2
2023-04-25T11:29:01.596Z,13.2
2023-04-25T11:30:01.609Z,12.9
2023-04-25T11:31:01.445Z,13.2
2023-04-25T11:32:01.462Z,13.2
2023-04-25T11:33:01.509Z,13.3
2023-04-25T11:34:01.402Z,13.3
2023-04-25T11:35:01.407Z,13.1
2023-04-25T11:36:02.380Z,13.1
2023-04-25T11:37:02.215Z,12.9
2023-04-25T11:38:02.256Z,13
2023-04-25T11:39:02.109Z,12.9
2023-04-25T11:40:02.184Z,13
2023-04-25T11:41:02.173Z,13
2023-04-25T11:42:01.708Z,12.9
2023-04-25T11:43:02.000Z,12.8
2023-04-25T11:44:02.064Z,13
2023-04-25T11:45:01.930Z,13.1
2023-04-25T11:46:01.865Z,13
2023-04-25T11:47:01.781Z,13.1
2023-04-25T11:48:01.928Z,12.9
2023-04-25T11:49:01.700Z,12.8
2023-04-25T11:50:01.751Z,13
2023-04-25T11:51:01.599Z,13
2023-04-25T11:52:01.588Z,13.2
2023-04-25T11:53:01.533Z,13.2
2023-04-25T11:54:01.521Z,13.1
2023-04-25T11:55:01.393Z,12.8
2023-04-25T11:56:01.429Z,13.2
2023-04-25T11:57:01.297Z,13
2023-04-25T11:58:02.348Z,12.8
2023-04-25T11:59:02.215Z,12.6
2023-04-25T12:00:02.306Z,12.6
2023-04-25T12:01:02.145Z,12.7
2023-04-25T12:02:02.058Z,12.8
2023-04-25T12:03:02.180Z,12.9
2023-04-25T12:04:02.304Z,12.9
2023-04-25T12:05:12.004Z,12.8
2023-04-25T12:06:02.053Z,12.7
2023-04-25T12:07:01.661Z,12.8
2023-04-25T12:08:01.482Z,12.4
2023-04-25T12:09:01.501Z,12.5
2023-04-25T12:10:01.378Z,12.7
2023-04-25T12:11:01.482Z,12.5
2023-04-25T12:12:01.303Z,12.7
2023-04-25T12:13:02.364Z,12.7
2023-04-25T12:14:02.194Z,12.8
2023-04-25T12:15:02.223Z,12.5
2023-04-25T12:16:02.192Z,12.4
2023-04-25T12:17:01.350Z,12.5
2023-04-25T12:18:01.440Z,12.6
2023-04-25T12:19:02.369Z,12.5
2023-04-25T12:20:02.210Z,12.6
2023-04-25T12:21:02.224Z,12.6
2023-04-25T12:22:02.181Z,12.6
2023-04-25T12:23:02.204Z,12.6
2023-04-25T12:24:02.059Z,12.7
2023-04-25T12:25:02.127Z,12.6
2023-04-25T12:26:01.982Z,12.8
2023-04-25T12:27:01.998Z,12.7
2023-04-25T12:28:02.147Z,12.7
2023-04-25T12:29:02.010Z,12.6
2023-04-25T12:30:01.963Z,12.7
2023-04-25T12:31:02.080Z,12.8
2023-04-25T12:32:02.376Z,12.9
2023-04-25T12:33:02.298Z,12.8
2023-04-25T12:34:02.307Z,12.8
2023-04-25T12:35:02.154Z,13.2
2023-04-25T12:36:03.325Z,13.3
2023-04-25T12:37:01.990Z,13.3
2023-04-25T12:38:02.030Z,13.4
2023-04-25T12:39:01.896Z,13.9
2023-04-25T12:40:01.849Z,13.2
2023-04-25T12:41:01.951Z,13.3
2023-04-25T12:42:01.879Z,13.1
2023-04-25T12:43:01.916Z,13.2
2023-04-25T12:44:02.006Z,13.1
2023-04-25T12:45:01.850Z,12.8
2023-04-25T12:46:01.802Z,13.1
2023-04-25T12:47:01.465Z,13.3
2023-04-25T12:48:03.457Z,14
2023-04-25T12:49:08.407Z,13.2
2023-04-25T12:50:02.082Z,12.7
2023-04-25T12:51:02.143Z,12.9
2023-04-25T12:52:01.974Z,13.4
2023-04-25T12:53:01.937Z,13.5
2023-04-25T12:54:01.942Z,13
2023-04-25T12:55:01.832Z,12.9
2023-04-25T12:56:01.728Z,13.7
2023-04-25T12:57:01.772Z,13.6
2023-04-25T12:58:01.624Z,13.5
2023-04-25T12:59:01.658Z,13.5
2023-04-25T13:00:01.694Z,13.4
2023-04-25T13:01:03.697Z,13.6
2023-04-25T13:02:01.471Z,13.4
2023-04-25T13:03:01.547Z,13.8
2023-04-25T13:04:01.732Z,14.5
2023-04-25T13:05:01.907Z,14.4
2023-04-25T13:06:01.930Z,14.5
2023-04-25T13:07:01.785Z,14.7
2023-04-25T13:08:01.811Z,13.7
2023-04-25T13:09:01.659Z,13.7
2023-04-25T13:10:01.656Z,13.6
2023-04-25T13:11:01.483Z,14.2
2023-04-25T13:12:01.593Z,13.3
2023-04-25T13:13:01.376Z,13.7
2023-04-25T13:14:01.395Z,13.6
2023-04-25T13:15:02.378Z,13.5
2023-04-25T13:16:02.240Z,13.6
2023-04-25T13:17:01.286Z,13.7
2023-04-25T13:18:02.349Z,14.5
2023-04-25T13:19:01.345Z,13.9
2023-04-25T13:20:01.352Z,13.6
2023-04-25T13:21:02.305Z,13.3
2023-04-25T13:22:02.214Z,13.4
2023-04-25T13:23:02.795Z,13.6
2023-04-25T13:24:01.868Z,13.4